createdAt,value
2024-02-29T00:01:47.667Z,101477.59
2024-02-29T00:04:15.977Z,101476.88
2024-02-29T00:06:43.729Z,101470.78
2024-02-29T00:09:11.387Z,101469.94
2024-02-29T00:11:39.191Z,101463.94
2024-02-29T00:14:08.444Z,101457.03
2024-02-29T00:16:36.196Z,101453.66
2024-02-29T00:19:04.500Z,101449.41
2024-02-29T00:21:34.484Z,101446.88
2024-02-29T00:24:02.241Z,101434.69
2024-02-29T00:26:30.004Z,101452.97
2024-02-29T00:28:57.711Z,101453.81
2024-02-29T00:31:26.794Z,101443.41
2024-02-29T00:33:54.554Z,101452.44
2024-02-29T00:36:22.414Z,101438.31
2024-02-29T00:38:58.588Z,101442.78
2024-02-29T00:41:30.004Z,101448.13
2024-02-29T00:43:57.657Z,101436.69
2024-02-29T00:46:26.851Z,101434.06
2024-02-29T00:48:54.812Z,101439.41
2024-02-29T00:51:22.663Z,101434.22
2024-02-29T00:53:50.391Z,101431.59
2024-02-29T00:56:18.767Z,101429.03
2024-02-29T00:58:46.586Z,101419.41
2024-02-29T01:01:14.474Z,101414.16
2024-02-29T01:03:43.765Z,101410.59
2024-02-29T01:06:12.330Z,101406.38
2024-02-29T01:08:40.091Z,101406.38
2024-02-29T01:11:07.949Z,101402.91
2024-02-29T01:13:36.234Z,101397.75
2024-02-29T01:16:04.165Z,101394.94
2024-02-29T01:18:31.985Z,101392.31
2024-02-29T01:21:01.297Z,101387.16
2024-02-29T01:23:29.064Z,101381.91
2024-02-29T01:25:56.959Z,101384.53
2024-02-29T01:28:24.732Z,101382.84
2024-02-29T01:30:52.597Z,101378.44
2024-02-29T01:33:20.390Z,101380.13
2024-02-29T01:35:48.088Z,101383.47
2024-02-29T01:38:17.175Z,101377.28
2024-02-29T01:40:46.724Z,101373.88
2024-02-29T01:43:14.623Z,101371.34
2024-02-29T01:45:42.479Z,101360.16
2024-02-29T01:48:11.025Z,101367.19
2024-02-29T01:50:39.537Z,101352.38
2024-02-29T01:53:07.861Z,101356.00
2024-02-29T01:55:37.056Z,101350.84
2024-02-29T01:58:05.615Z,101348.28
2024-02-29T02:00:34.284Z,101339.66
2024-02-29T02:03:02.108Z,101342.44
2024-02-29T02:05:29.877Z,101334.56
2024-02-29T02:07:57.637Z,101322.38
2024-02-29T02:10:25.422Z,101320.88
2024-02-29T02:12:54.656Z,101320.78
2024-02-29T02:15:22.535Z,101307.75
2024-02-29T02:17:51.287Z,101299.94
2024-02-29T02:20:20.499Z,101305.97
2024-02-29T02:22:48.292Z,101297.25
2024-02-29T02:25:16.209Z,101294.78
2024-02-29T02:27:44.167Z,101291.41
2024-02-29T02:30:12.828Z,101281.22
2024-02-29T02:32:41.281Z,101288.16
2024-02-29T02:35:10.271Z,101281.16
2024-02-29T02:37:39.394Z,101285.53
2024-02-29T02:40:08.413Z,101276.91
2024-02-29T02:42:36.231Z,101267.38
2024-02-29T02:45:04.058Z,101274.28
2024-02-29T02:47:31.877Z,101255.19
2024-02-29T02:49:59.631Z,101243.78
2024-02-29T02:52:27.507Z,101244.84
2024-02-29T02:54:56.753Z,101238.09
2024-02-29T02:57:24.507Z,101256.34
2024-02-29T02:59:52.277Z,101238.94
2024-02-29T03:02:20.086Z,101240.53
2024-02-29T03:04:47.928Z,101240.44
2024-02-29T03:07:15.796Z,101226.50
2024-02-29T03:09:43.828Z,101227.34
2024-02-29T03:12:12.924Z,101227.34
2024-02-29T03:14:40.692Z,101219.41
2024-02-29T03:17:08.497Z,101222.94
2024-02-29T03:19:36.293Z,101213.16
2024-02-29T03:22:04.694Z,101219.06
2024-02-29T03:24:32.559Z,101212.88
2024-02-29T03:27:00.439Z,101210.22
2024-02-29T03:29:30.856Z,101200.72
2024-02-29T03:31:58.542Z,101202.25
2024-02-29T03:34:26.310Z,101197.00
2024-02-29T03:36:54.099Z,101197.94
2024-02-29T03:39:22.093Z,101197.84
2024-02-29T03:41:49.983Z,101189.91
2024-02-29T03:44:18.029Z,101182.97
2024-02-29T03:46:47.128Z,101184.66
2024-02-29T03:49:15.054Z,101184.75
2024-02-29T03:51:42.964Z,101181.28
2024-02-29T03:54:10.832Z,101180.09
2024-02-29T03:56:38.761Z,101180.94
2024-02-29T03:59:06.867Z,101171.31
2024-02-29T04:01:35.127Z,101174.84
2024-02-29T04:04:04.816Z,101168.78
2024-02-29T04:06:32.594Z,101154.88
2024-02-29T04:09:00.325Z,101149.81
2024-02-29T04:11:28.102Z,101150.47
2024-02-29T04:13:55.844Z,101148.78
2024-02-29T04:16:23.837Z,101149.63
2024-02-29T04:18:52.094Z,101139.13
2024-02-29T04:21:21.243Z,101133.91
2024-02-29T04:23:49.006Z,101135.59
2024-02-29T04:26:19.761Z,101134.75
2024-02-29T04:28:47.511Z,101135.59
2024-02-29T04:31:15.319Z,101131.28
2024-02-29T04:33:43.168Z,101130.34
2024-02-29T04:36:10.953Z,101129.50
2024-02-29T04:38:40.059Z,101118.94
2024-02-29T04:41:07.896Z,101118.00
2024-02-29T04:43:36.398Z,101118.00
2024-02-29T04:46:04.481Z,101111.84
2024-02-29T04:48:32.234Z,101117.06
2024-02-29T04:50:59.948Z,101114.47
2024-02-29T04:53:27.678Z,101120.44
2024-02-29T04:55:57.449Z,101107.34
2024-02-29T04:58:25.222Z,101108.19
2024-02-29T05:00:53.192Z,101115.03
2024-02-29T05:03:22.262Z,101109.72
2024-02-29T05:05:50.041Z,101098.19
2024-02-29T05:08:17.770Z,101104.19
2024-02-29T05:10:45.581Z,101098.81
2024-02-29T05:13:14.789Z,101102.16
2024-02-29T05:15:42.632Z,101090.75
2024-02-29T05:18:10.603Z,101090.75
2024-02-29T05:20:38.366Z,101091.50
2024-02-29T05:23:07.040Z,101096.00
2024-02-29T05:25:36.748Z,101090.41
2024-02-29T05:28:04.565Z,101085.16
2024-02-29T05:30:33.814Z,101088.88
2024-02-29T05:33:01.610Z,101089.56
2024-02-29T05:35:29.380Z,101078.22
2024-02-29T05:37:59.201Z,101079.91
2024-02-29T05:40:27.820Z,101084.41
2024-02-29T05:42:55.724Z,101082.44
2024-02-29T05:45:23.475Z,101077.09
2024-02-29T05:47:52.725Z,101072.63
2024-02-29T05:50:20.462Z,101068.22
2024-02-29T05:52:48.157Z,101072.63
2024-02-29T05:55:16.022Z,101072.53
2024-02-29T05:57:43.769Z,101065.50
2024-02-29T06:00:12.542Z,101069.91
2024-02-29T06:02:41.057Z,101067.38
2024-02-29T06:05:11.207Z,101061.94
2024-02-29T06:07:39.027Z,101059.22
2024-02-29T06:10:10.313Z,101055.00
2024-02-29T06:12:38.153Z,101053.25
2024-02-29T06:15:10.702Z,101055.00
2024-02-29T06:17:39.057Z,101044.53
2024-02-29T06:20:11.787Z,101052.41
2024-02-29T06:22:41.760Z,101050.63
2024-02-29T06:25:11.322Z,101042.75
2024-02-29T06:27:40.308Z,101039.44
2024-02-29T06:30:09.532Z,101045.53
2024-02-29T06:32:41.604Z,101044.53
2024-02-29T06:35:10.250Z,101040.88
2024-02-29T06:37:43.833Z,101037.41
2024-02-29T06:40:13.284Z,101040.72
2024-02-29T06:42:42.086Z,101047.53
2024-02-29T06:45:11.704Z,101046.41
2024-02-29T06:47:40.964Z,101039.56
2024-02-29T06:50:10.139Z,101036.84
2024-02-29T06:52:37.944Z,101037.69
2024-02-29T06:55:09.068Z,101036.84
2024-02-29T06:57:36.994Z,101041.09
2024-02-29T07:00:07.170Z,101035.75
2024-02-29T07:02:35.217Z,101031.25
2024-02-29T07:05:03.128Z,101031.16
2024-02-29T07:07:30.932Z,101027.69
2024-02-29T07:09:58.781Z,101020.66
2024-02-29T07:12:27.962Z,101024.13
2024-02-29T07:14:55.690Z,101023.97
2024-02-29T07:17:23.418Z,101020.56
2024-02-29T07:19:51.110Z,101019.66
2024-02-29T07:22:19.834Z,101015.16
2024-02-29T07:24:47.954Z,101012.34
2024-02-29T07:27:16.335Z,101017.50
2024-02-29T07:29:45.485Z,101008.72
2024-02-29T07:32:13.442Z,101012.91
2024-02-29T07:34:41.160Z,101007.47
2024-02-29T07:37:08.932Z,101006.47
2024-02-29T07:39:36.887Z,101008.78
2024-02-29T07:42:05.064Z,101006.84
2024-02-29T07:44:33.800Z,101008.44
2024-02-29T07:47:03.059Z,100990.06
2024-02-29T07:49:32.925Z,101003.56
2024-02-29T07:52:01.194Z,100995.50
2024-02-29T07:54:28.952Z,100999.03
2024-02-29T07:56:57.408Z,101004.69
2024-02-29T07:59:26.784Z,100997.47
2024-02-29T08:01:54.774Z,101004.31
2024-02-29T08:04:23.947Z,100997.94
2024-02-29T08:06:51.722Z,101002.03
2024-02-29T08:09:19.685Z,100996.91
2024-02-29T08:11:48.379Z,101003.00
2024-02-29T08:14:19.021Z,100997.84
2024-02-29T08:16:48.448Z,100997.94
2024-02-29T08:19:17.541Z,100990.22
2024-02-29T08:21:46.764Z,100986.75
2024-02-29T08:24:14.613Z,100984.22
2024-02-29T08:26:42.511Z,100984.22
2024-02-29T08:29:14.396Z,100985.91
2024-02-29T08:31:44.291Z,100982.66
2024-02-29T08:34:12.391Z,100979.19
2024-02-29T08:36:40.884Z,100981.03
2024-02-29T08:39:10.237Z,100981.03
2024-02-29T08:41:38.462Z,100971.19
2024-02-29T08:44:06.428Z,100975.50
2024-02-29T08:46:34.201Z,100979.94
2024-02-29T08:49:03.641Z,100970.38
2024-02-29T08:51:32.723Z,100974.66
2024-02-29T08:54:00.613Z,100966.59
2024-02-29T08:56:30.213Z,100965.47
2024-02-29T08:58:58.014Z,100961.81
2024-02-29T09:01:25.870Z,100963.41
2024-02-29T09:03:54.313Z,100957.22
2024-02-29T09:06:22.117Z,100963.22
2024-02-29T09:08:50.332Z,100954.38
2024-02-29T09:11:18.136Z,100956.72
2024-02-29T09:13:47.758Z,100959.25
2024-02-29T09:16:17.404Z,100955.59
2024-02-29T09:18:45.485Z,100951.16
2024-02-29T09:21:13.236Z,100948.25
2024-02-29T09:23:41.709Z,100933.13
2024-02-29T09:26:09.594Z,100940.94
2024-02-29T09:28:37.369Z,100939.88
2024-02-29T09:31:06.682Z,100933.59
2024-02-29T09:33:34.429Z,100933.47
2024-02-29T09:36:08.298Z,100925.22
2024-02-29T09:38:36.800Z,100931.06
2024-02-29T09:41:18.436Z,100922.97
2024-02-29T09:43:54.396Z,100912.25
2024-02-29T09:46:25.229Z,100912.03
2024-02-29T09:48:53.845Z,100911.84
2024-02-29T09:51:22.753Z,100904.72
2024-02-29T09:53:51.880Z,100916.69
2024-02-29T09:56:23.827Z,100918.38
2024-02-29T09:58:52.259Z,100904.31
2024-02-29T10:01:20.282Z,100904.31
2024-02-29T10:03:49.553Z,100908.19
2024-02-29T10:06:17.503Z,100906.66
2024-02-29T10:08:45.298Z,100905.31
2024-02-29T10:11:14.183Z,100909.63
2024-02-29T10:13:43.036Z,100898.25
2024-02-29T10:16:12.124Z,100899.81
2024-02-29T10:18:40.246Z,100895.09
2024-02-29T10:21:12.653Z,100887.72
2024-02-29T10:23:41.267Z,100891.97
2024-02-29T10:26:09.813Z,100886.38
2024-02-29T10:28:37.775Z,100890.47
2024-02-29T10:31:06.125Z,100881.41
2024-02-29T10:33:38.890Z,100875.13
2024-02-29T10:36:14.817Z,100877.41
2024-02-29T10:38:42.680Z,100882.59
2024-02-29T10:41:12.223Z,100874.69
2024-02-29T10:43:40.230Z,100873.09
2024-02-29T10:46:09.324Z,100877.53
2024-02-29T10:48:44.778Z,100873.00
2024-02-29T10:51:21.079Z,100868.38
2024-02-29T10:53:51.890Z,100868.38
2024-02-29T10:56:24.150Z,100857.84
2024-02-29T10:58:58.872Z,100863.09
2024-02-29T11:01:27.735Z,100856.34
2024-02-29T11:03:55.546Z,100866.47
2024-02-29T11:06:25.409Z,100857.63
2024-02-29T11:08:53.545Z,100857.41
2024-02-29T11:11:26.674Z,100852.16
2024-02-29T11:14:04.912Z,100856.47
2024-02-29T11:16:33.393Z,100850.25
2024-02-29T11:19:04.656Z,100852.66
2024-02-29T11:21:34.091Z,100856.13
2024-02-29T11:24:05.574Z,100851.72
2024-02-29T11:26:34.725Z,100843.09
2024-02-29T11:29:13.301Z,100840.13
2024-02-29T11:31:45.996Z,100836.44
2024-02-29T11:34:13.801Z,100827.59
2024-02-29T11:36:43.210Z,100821.28
2024-02-29T11:39:12.046Z,100821.16
2024-02-29T11:41:40.001Z,100816.63
2024-02-29T11:44:07.744Z,100805.13
2024-02-29T11:46:35.510Z,100809.56
2024-02-29T11:49:03.856Z,100801.47
2024-02-29T11:51:31.639Z,100801.13
2024-02-29T11:54:00.840Z,100799.84
2024-02-29T11:56:28.845Z,100798.88
2024-02-29T11:58:56.649Z,100796.13
2024-02-29T12:01:24.956Z,100803.31
2024-02-29T12:03:53.243Z,100806.06
2024-02-29T12:06:21.883Z,100801.13
2024-02-29T12:08:50.440Z,100796.19
2024-02-29T12:11:19.947Z,100792.94
2024-02-29T12:13:47.796Z,100808.97
2024-02-29T12:16:15.936Z,100802.31
2024-02-29T12:18:42.850Z,100797.19
2024-02-29T12:21:10.941Z,100797.19
2024-02-29T12:23:40.745Z,100793.78
2024-02-29T12:26:10.346Z,100786.84
2024-02-29T12:28:40.714Z,100779.06
2024-02-29T12:31:10.102Z,100780.75
2024-02-29T12:33:38.796Z,100771.03
2024-02-29T12:36:07.420Z,100766.84
2024-02-29T12:38:35.912Z,100764.94
2024-02-29T12:41:03.790Z,100762.94
2024-02-29T12:43:31.642Z,100753.38
2024-02-29T12:46:00.805Z,100746.19
2024-02-29T12:48:28.535Z,100745.25
2024-02-29T12:50:56.250Z,100741.66
2024-02-29T12:53:23.991Z,100738.81
2024-02-29T12:55:51.743Z,100744.56
2024-02-29T12:58:19.676Z,100736.47
2024-02-29T13:00:47.487Z,100731.19
2024-02-29T13:03:16.850Z,100726.41
2024-02-29T13:05:45.518Z,100720.09
2024-02-29T13:08:13.281Z,100718.19
2024-02-29T13:10:41.098Z,100717.97
2024-02-29T13:13:10.608Z,100714.28
2024-02-29T13:15:39.049Z,100712.25
2024-02-29T13:18:06.954Z,100713.81
2024-02-29T13:20:36.194Z,100702.44
2024-02-29T13:23:03.945Z,100696.84
2024-02-29T13:25:31.858Z,100696.59
2024-02-29T13:27:59.861Z,100693.63
2024-02-29T13:30:27.578Z,100689.06
2024-02-29T13:32:57.297Z,100677.47
2024-02-29T13:35:25.059Z,100668.84
2024-02-29T13:37:54.465Z,100671.97
2024-02-29T13:40:22.348Z,100666.38
2024-02-29T13:42:50.238Z,100669.34
2024-02-29T13:45:17.968Z,100660.41
2024-02-29T13:47:50.211Z,100656.44
2024-02-29T13:50:19.933Z,100656.94
2024-02-29T13:52:47.705Z,100647.94
2024-02-29T13:55:17.234Z,100642.66
2024-02-29T13:57:45.275Z,100637.38
2024-02-29T14:00:13.344Z,100634.66
2024-02-29T14:02:41.164Z,100635.28
2024-02-29T14:05:09.596Z,100633.59
2024-02-29T14:07:37.333Z,100610.44
2024-02-29T14:10:05.851Z,100620.53
2024-02-29T14:12:36.352Z,100613.34
2024-02-29T14:15:04.599Z,100612.59
2024-02-29T14:17:31.366Z,100617.53
2024-02-29T14:19:59.147Z,100608.69
2024-02-29T14:22:27.019Z,100606.91
2024-02-29T14:24:54.920Z,100599.00
2024-02-29T14:27:24.155Z,100602.34
2024-02-29T14:29:53.349Z,100600.41
2024-02-29T14:32:21.159Z,100596.81
2024-02-29T14:34:48.961Z,100595.00
2024-02-29T14:37:16.920Z,100588.44
2024-02-29T14:39:45.313Z,100588.91
2024-02-29T14:42:15.214Z,100582.91
2024-02-29T14:44:43.151Z,100583.50
2024-02-29T14:47:12.394Z,100573.69
2024-02-29T14:49:41.018Z,100574.03
2024-02-29T14:52:08.959Z,100563.97
2024-02-29T14:54:36.868Z,100567.09
2024-02-29T14:57:04.849Z,100561.00
2024-02-29T14:59:32.588Z,100557.38
2024-02-29T15:02:00.474Z,100544.06
2024-02-29T15:04:29.807Z,100551.03
2024-02-29T15:06:57.663Z,100547.44
2024-02-29T15:09:25.477Z,100538.31
2024-02-29T15:11:53.230Z,100523.22
2024-02-29T15:14:21.001Z,100536.16
2024-02-29T15:16:48.840Z,100517.84
2024-02-29T15:19:16.656Z,100521.88
2024-02-29T15:21:45.935Z,100519.59
2024-02-29T15:24:13.750Z,100515.06
2024-02-29T15:26:44.537Z,100511.47
2024-02-29T15:29:12.279Z,100512.44
2024-02-29T15:31:41.052Z,100513.41
2024-02-29T15:34:09.025Z,100509.94
2024-02-29T15:36:36.906Z,100508.84
2024-02-29T15:39:06.205Z,100502.59
2024-02-29T15:41:35.925Z,100491.69
2024-02-29T15:44:03.660Z,100496.47
2024-02-29T15:46:31.492Z,100488.44
2024-02-29T15:48:59.384Z,100486.19
2024-02-29T15:51:27.663Z,100479.81
2024-02-29T15:53:55.378Z,100483.31
2024-02-29T15:56:24.529Z,100483.16
2024-02-29T15:58:52.511Z,100483.16
2024-02-29T16:01:20.410Z,100473.84
2024-02-29T16:03:48.267Z,100478.16
2024-02-29T16:06:16.138Z,100479.81
2024-02-29T16:08:43.872Z,100466.16
2024-02-29T16:11:11.675Z,100472.88
2024-02-29T16:13:40.913Z,100457.06
2024-02-29T16:16:08.946Z,100465.94
2024-02-29T16:18:36.768Z,100460.66
2024-02-29T16:21:07.140Z,100455.63
2024-02-29T16:23:35.738Z,100464.22
2024-02-29T16:26:03.522Z,100464.22
2024-02-29T16:28:31.478Z,100455.63
2024-02-29T16:31:00.749Z,100452.28
2024-02-29T16:33:28.598Z,100446.16
2024-02-29T16:35:56.448Z,100445.34
2024-02-29T16:38:24.255Z,100444.50
2024-02-29T16:40:55.690Z,100433.13
2024-02-29T16:43:23.806Z,100429.50
2024-02-29T16:45:51.595Z,100431.44
2024-02-29T16:48:20.932Z,100431.53
2024-02-29T16:50:48.664Z,100423.63
2024-02-29T16:53:16.409Z,100429.03
2024-02-29T16:55:44.196Z,100426.41
2024-02-29T16:58:12.305Z,100416.81
2024-02-29T17:00:40.182Z,100418.63
2024-02-29T17:03:07.999Z,100424.72
2024-02-29T17:05:37.087Z,100418.75
2024-02-29T17:08:05.426Z,100409.16
2024-02-29T17:10:33.306Z,100410.09
2024-02-29T17:13:01.510Z,100409.16
2024-02-29T17:15:29.270Z,100409.41
2024-02-29T17:17:57.015Z,100408.44
2024-02-29T17:20:24.783Z,100395.50
2024-02-29T17:22:53.803Z,100405.78
2024-02-29T17:25:21.571Z,100397.88
2024-02-29T17:29:15.725Z,100401.50
2024-02-29T17:31:43.430Z,100396.22
2024-02-29T17:34:11.198Z,100398.84
2024-02-29T17:36:39.009Z,100391.78
2024-02-29T17:39:44.383Z,100395.97
2024-02-29T17:42:12.137Z,100386.38
2024-02-29T17:44:39.916Z,100387.25
2024-02-29T17:47:07.702Z,100389.00
2024-02-29T17:49:35.521Z,100375.84
2024-02-29T17:52:03.262Z,100381.84
2024-02-29T17:54:31.002Z,100381.00
2024-02-29T17:57:00.191Z,100386.38
2024-02-29T17:59:27.929Z,100380.25
2024-02-29T18:01:55.706Z,100375.13
2024-02-29T18:04:23.542Z,100366.63
2024-02-29T18:06:52.447Z,100373.47
2024-02-29T18:09:20.509Z,100373.59
2024-02-29T18:11:48.350Z,100367.69
2024-02-29T18:14:19.903Z,100362.19
2024-02-29T18:16:47.775Z,100356.91
2024-02-29T18:19:15.791Z,100349.13
2024-02-29T18:21:44.941Z,100345.44
2024-02-29T18:24:13.103Z,100350.69
2024-02-29T18:26:40.848Z,100343.03
2024-02-29T18:29:08.639Z,100348.06
2024-02-29T18:31:37.767Z,100348.91
2024-02-29T18:34:05.471Z,100332.47
2024-02-29T18:36:33.246Z,100346.38
2024-02-29T18:39:00.969Z,100339.31
2024-02-29T18:41:29.649Z,100340.38
2024-02-29T18:43:57.678Z,100338.44
2024-02-29T18:46:25.493Z,100333.91
2024-02-29T18:48:54.752Z,100339.88
2024-02-29T18:51:22.486Z,100336.28
2024-02-29T18:54:44.424Z,100333.66
2024-02-29T18:57:12.135Z,100331.75
2024-02-29T18:59:39.827Z,100323.72
2024-02-29T19:02:08.382Z,100316.75
2024-02-29T19:04:36.408Z,100320.09
2024-02-29T19:07:04.284Z,100328.84
2024-02-29T19:09:32.671Z,100325.38
2024-02-29T19:12:01.804Z,100327.03
2024-02-29T19:14:29.519Z,100318.44
2024-02-29T19:16:57.322Z,100323.56
2024-02-29T19:19:26.273Z,100319.84
2024-02-29T19:21:54.133Z,100321.53
2024-02-29T19:24:21.893Z,100322.09
2024-02-29T19:26:48.738Z,100314.19
2024-02-29T19:29:17.908Z,100321.41
2024-02-29T19:31:45.698Z,100315.28
2024-02-29T19:34:14.209Z,100316.00
2024-02-29T19:36:42.153Z,100309.06
2024-02-29T19:39:10.298Z,100304.88
2024-02-29T19:41:38.051Z,100304.88
2024-02-29T19:44:06.144Z,100303.19
2024-02-29T19:46:35.367Z,100307.53
2024-02-29T19:49:03.312Z,100302.25
2024-02-29T19:51:31.088Z,100295.28
2024-02-29T19:53:58.791Z,100295.28
2024-02-29T19:56:26.519Z,100288.09
2024-02-29T19:58:56.885Z,100293.25
2024-02-29T20:01:24.845Z,100289.91
2024-02-29T20:03:54.218Z,100288.09
2024-02-29T20:06:22.425Z,100281.25
2024-02-29T20:08:50.251Z,100294.22
2024-02-29T20:11:18.123Z,100288.09
2024-02-29T20:13:46.733Z,100296.00
2024-02-29T20:16:14.528Z,100302.25
2024-02-29T20:18:42.324Z,100295.16
2024-02-29T20:21:11.739Z,100277.09
2024-02-29T20:23:39.454Z,100285.47
2024-02-29T20:26:07.201Z,100271.31
2024-02-29T20:28:35.044Z,100286.16
2024-02-29T20:31:05.876Z,100266.88
2024-02-29T20:33:33.685Z,100263.13
2024-02-29T20:36:01.415Z,100260.25
2024-02-29T20:38:31.181Z,100266.38
2024-02-29T20:40:58.945Z,100253.56
2024-02-29T20:43:26.846Z,100264.69
2024-02-29T20:45:54.837Z,100251.63
2024-02-29T20:48:22.595Z,100261.19
2024-02-29T20:50:50.447Z,100260.25
2024-02-29T20:53:18.190Z,100266.38
2024-02-29T20:55:47.358Z,100257.72
2024-02-29T20:58:15.760Z,100256.88
2024-02-29T21:00:43.644Z,100257.47
2024-02-29T21:03:11.477Z,100254.97
2024-02-29T21:05:39.336Z,100248.75
2024-02-29T21:08:07.640Z,100255.81
2024-02-29T21:10:40.396Z,100249.44
2024-02-29T21:13:13.501Z,100233.63
2024-02-29T21:15:41.472Z,100237.22
2024-02-29T21:18:09.225Z,100239.84
2024-02-29T21:20:36.984Z,100224.03
2024-02-29T21:23:05.408Z,100219.47
2024-02-29T21:25:33.353Z,100220.28
2024-02-29T21:28:03.080Z,100213.34
2024-02-29T21:30:32.772Z,100220.56
2024-02-29T21:33:00.750Z,100216.13
2024-02-29T21:35:28.974Z,100213.50
2024-02-29T21:37:56.751Z,100219.47
2024-02-29T21:42:48.642Z,100204.75
2024-02-29T21:45:16.930Z,100195.28
2024-02-29T21:47:44.672Z,100199.34
2024-02-29T21:50:12.836Z,100201.69
2024-02-29T21:52:40.662Z,100193.78
2024-02-29T21:55:09.323Z,100194.75
2024-02-29T21:57:37.097Z,100196.69
2024-02-29T22:00:09.428Z,100182.81
2024-02-29T22:02:37.109Z,100188.09
2024-02-29T22:05:05.566Z,100190.72
2024-02-29T22:07:33.375Z,100181.16
2024-02-29T22:10:01.366Z,100173.34
2024-02-29T22:12:29.275Z,100176.13
2024-02-29T22:14:57.398Z,100170.16
2024-02-29T22:17:26.603Z,100169.44
2024-02-29T22:19:54.345Z,100169.44
2024-02-29T22:22:22.051Z,100166.09
2024-02-29T22:24:49.750Z,100165.84
2024-02-29T22:27:17.622Z,100165.84
2024-02-29T22:29:45.355Z,100167.50
2024-02-29T22:32:13.300Z,100163.22
2024-02-29T22:34:42.477Z,100161.97
2024-02-29T22:37:10.314Z,100163.06
2024-02-29T22:39:38.149Z,100155.31
2024-02-29T22:42:07.163Z,100154.47
2024-02-29T22:44:35.184Z,100147.53
2024-02-29T22:47:02.870Z,100147.53
2024-02-29T22:49:30.878Z,100154.31
2024-02-29T22:52:00.110Z,100153.34
2024-02-29T22:54:27.977Z,100145.44
2024-02-29T22:56:55.682Z,100138.50
2024-02-29T22:59:23.382Z,100146.56
2024-02-29T23:01:51.323Z,100142.50
2024-02-29T23:04:19.463Z,100145.97
2024-02-29T23:06:47.664Z,100143.59
2024-02-29T23:09:18.038Z,100133.75
2024-02-29T23:11:45.738Z,100132.09
2024-02-29T23:14:13.415Z,100128.75
2024-02-29T23:16:41.203Z,100132.22
2024-02-29T23:19:09.080Z,100131.41
2024-02-29T23:21:37.049Z,100130.56
2024-02-29T23:24:05.086Z,100120.13
2024-02-29T23:26:34.279Z,100120.25
2024-02-29T23:29:02.389Z,100108.88
2024-02-29T23:31:30.179Z,100110.00
2024-02-29T23:33:57.966Z,100120.41
2024-02-29T23:36:25.667Z,100109.13
2024-02-29T23:38:53.354Z,100107.34
2024-02-29T23:41:21.441Z,100101.22
2024-02-29T23:43:52.738Z,100094.53
2024-02-29T23:46:20.720Z,100091.34
2024-02-29T23:48:48.666Z,100097.88
2024-02-29T23:51:17.678Z,100093.56
2024-02-29T23:53:45.356Z,100087.34
2024-02-29T23:56:13.044Z,100088.28
2024-02-29T23:58:42.421Z,100087.59
